createdAt,value
2023-10-28T00:00:52.091Z,3.75
2023-10-28T00:03:19.460Z,6.00
2023-10-28T00:05:46.793Z,6.00
2023-10-28T00:08:13.777Z,4.00
2023-10-28T00:10:42.533Z,6.00
2023-10-28T00:13:10.400Z,4.75
2023-10-28T00:15:37.568Z,3.25
2023-10-28T00:18:05.192Z,5.00
2023-10-28T00:20:33.607Z,5.50
2023-10-28T00:23:00.477Z,6.00
2023-10-28T00:25:28.990Z,5.00
2023-10-28T00:27:56.956Z,5.25
2023-10-28T00:30:24.870Z,5.50
2023-10-28T00:33:00.371Z,1.50
2023-10-28T00:35:31.784Z,3.25
2023-10-28T00:37:59.350Z,4.00
2023-10-28T00:40:27.728Z,4.75
2023-10-28T00:42:54.484Z,2.00
2023-10-28T00:45:21.537Z,2.00
2023-10-28T00:47:55.255Z,2.00
2023-10-28T00:50:24.812Z,2.00
2023-10-28T00:52:55.081Z,1.75
2023-10-28T00:55:24.467Z,2.00
2023-10-28T00:57:54.428Z,1.00
2023-10-28T01:00:24.233Z,2.00
2023-10-28T01:02:52.938Z,2.00
2023-10-28T01:05:20.987Z,3.25
2023-10-28T01:07:50.513Z,3.25
2023-10-28T01:10:34.834Z,3.25
2023-10-28T01:13:05.650Z,1.75
2023-10-28T01:15:32.590Z,4.75
2023-10-28T01:17:59.615Z,3.00
2023-10-28T01:20:26.618Z,2.00
2023-10-28T01:22:53.806Z,1.00
2023-10-28T01:25:22.182Z,3.25
2023-10-28T01:27:49.644Z,2.00
2023-10-28T01:30:17.911Z,2.25
2023-10-28T01:32:46.708Z,2.00
2023-10-28T01:35:14.644Z,1.75
2023-10-28T01:37:42.285Z,1.75
2023-10-28T01:40:16.044Z,3.00
2023-10-28T01:42:45.871Z,2.00
2023-10-28T01:45:13.848Z,1.00
2023-10-28T01:47:42.862Z,1.00
2023-10-28T01:50:13.588Z,2.00
2023-10-28T01:52:41.824Z,1.25
2023-10-28T01:55:13.410Z,1.00
2023-10-28T01:57:40.595Z,2.50
2023-10-28T02:00:14.623Z,2.00
2023-10-28T02:02:43.376Z,2.00
2023-10-28T02:05:11.090Z,1.25
2023-10-28T02:07:38.778Z,0.50
2023-10-28T02:10:06.476Z,2.00
2023-10-28T02:12:35.853Z,2.00
2023-10-28T02:15:05.471Z,1.25
2023-10-28T02:17:32.599Z,0.50
2023-10-28T02:19:59.821Z,2.00
2023-10-28T02:22:26.736Z,2.00
2023-10-28T02:24:53.534Z,1.00
2023-10-28T02:27:20.454Z,1.75
2023-10-28T02:29:47.464Z,1.00
2023-10-28T02:32:14.967Z,1.00
2023-10-28T02:34:42.965Z,0.50
2023-10-28T02:37:10.141Z,1.00
2023-10-28T02:39:37.098Z,0.00
2023-10-28T02:42:04.114Z,0.00
2023-10-28T02:44:31.951Z,1.00
2023-10-28T02:46:59.745Z,0.25
2023-10-28T02:49:27.037Z,1.00
2023-10-28T02:51:53.905Z,1.00
2023-10-28T02:54:21.891Z,1.25
2023-10-28T02:56:48.744Z,1.00
2023-10-28T02:59:15.775Z,0.00
2023-10-28T03:01:42.589Z,0.50
2023-10-28T03:04:09.576Z,0.00
2023-10-28T03:06:36.473Z,0.00
2023-10-28T03:09:03.510Z,0.00
2023-10-28T03:11:30.793Z,0.00
2023-10-28T03:13:57.650Z,0.00
2023-10-28T03:16:24.508Z,1.00
2023-10-28T03:18:51.479Z,0.00
2023-10-28T03:21:18.514Z,0.00
2023-10-28T03:23:45.468Z,0.00
2023-10-28T03:26:12.243Z,1.00
2023-10-28T03:28:39.123Z,1.00
2023-10-28T03:31:12.852Z,2.75
2023-10-28T03:33:42.851Z,0.50
2023-10-28T03:36:12.761Z,1.00
2023-10-28T03:38:40.308Z,1.25
2023-10-28T03:41:11.704Z,1.50
2023-10-28T03:43:42.669Z,0.75
2023-10-28T03:46:17.951Z,1.00
2023-10-28T03:48:44.725Z,2.00
2023-10-28T03:51:11.532Z,1.00
2023-10-28T03:53:38.615Z,4.50
2023-10-28T03:56:06.954Z,9.33
2023-10-28T03:58:34.066Z,1.00
2023-10-28T04:01:00.805Z,1.00
2023-10-28T04:03:27.791Z,1.25
2023-10-28T04:05:57.525Z,1.25
2023-10-28T04:08:24.505Z,0.75
2023-10-28T04:10:51.305Z,0.75
2023-10-28T04:13:19.466Z,0.75
2023-10-28T04:15:47.773Z,2.00
2023-10-28T04:18:14.621Z,1.50
2023-10-28T04:20:41.462Z,2.00
2023-10-28T04:23:08.495Z,1.00
2023-10-28T04:25:35.626Z,1.00
2023-10-28T04:28:02.688Z,0.33
2023-10-28T04:30:29.636Z,1.00
2023-10-28T04:32:56.809Z,1.33
2023-10-28T04:35:28.421Z,1.67
2023-10-28T04:37:57.649Z,4.00
2023-10-28T04:40:26.392Z,4.00
2023-10-28T04:42:54.006Z,13.33
2023-10-28T04:45:23.230Z,6.00
2023-10-28T04:47:51.695Z,9.00
2023-10-28T04:50:18.983Z,5.00
2023-10-28T04:52:46.133Z,6.00
2023-10-28T04:55:14.319Z,8.00
2023-10-28T04:57:41.766Z,4.00
2023-10-28T05:00:10.008Z,6.00
2023-10-28T05:02:37.109Z,8.00
2023-10-28T05:05:04.963Z,13.67
2023-10-28T05:07:32.032Z,5.50
2023-10-28T05:09:59.793Z,5.00
2023-10-28T05:12:27.042Z,2.00
2023-10-28T05:14:54.084Z,8.00
2023-10-28T05:17:21.156Z,9.33
2023-10-28T05:19:48.176Z,11.33
2023-10-28T05:22:18.296Z,9.00
2023-10-28T05:24:45.440Z,10.00
2023-10-28T05:27:12.768Z,8.67
2023-10-28T05:29:39.658Z,3.00
2023-10-28T05:32:06.940Z,10.00
2023-10-28T05:34:34.905Z,6.00
2023-10-28T05:37:01.675Z,11.33
2023-10-28T05:39:28.756Z,10.00
2023-10-28T05:41:55.734Z,7.67
2023-10-28T05:44:22.740Z,7.50
2023-10-28T05:46:49.853Z,10.00
2023-10-28T05:49:16.838Z,2.00
2023-10-28T05:51:44.618Z,1.00
2023-10-28T05:54:13.106Z,1.50
2023-10-28T05:56:40.059Z,1.00
2023-10-28T05:59:06.990Z,1.75
2023-10-28T06:01:34.137Z,1.00
2023-10-28T06:04:02.277Z,2.00
2023-10-28T06:06:29.145Z,2.00
2023-10-28T06:08:56.135Z,2.00
2023-10-28T06:11:23.081Z,2.00
2023-10-28T06:13:50.413Z,1.25
2023-10-28T06:16:20.232Z,2.00
2023-10-28T06:18:47.324Z,2.00
2023-10-28T06:21:17.761Z,1.00
2023-10-28T06:23:44.733Z,0.25
2023-10-28T06:26:11.764Z,1.00
2023-10-28T06:28:39.382Z,0.00
2023-10-28T06:31:06.226Z,0.00
2023-10-28T06:33:33.843Z,1.00
2023-10-28T06:36:00.690Z,0.25
2023-10-28T06:38:29.531Z,1.00
2023-10-28T06:40:58.317Z,1.75
2023-10-28T06:43:25.369Z,1.75
2023-10-28T06:45:52.334Z,1.75
2023-10-28T06:48:19.253Z,2.00
2023-10-28T06:50:46.456Z,2.00
2023-10-28T06:53:13.373Z,2.00
2023-10-28T06:55:40.361Z,2.00
2023-10-28T06:58:07.412Z,3.00
2023-10-28T07:00:34.192Z,2.00
2023-10-28T07:03:01.146Z,2.75
2023-10-28T07:05:28.195Z,1.50
2023-10-28T07:07:55.912Z,1.50
2023-10-28T07:10:23.627Z,1.00
2023-10-28T07:12:51.303Z,1.00
2023-10-28T07:15:19.377Z,2.00
2023-10-28T07:17:46.732Z,3.00
2023-10-28T07:20:13.781Z,2.25
2023-10-28T07:22:42.777Z,3.00
2023-10-28T07:25:11.294Z,2.75
2023-10-28T07:27:38.761Z,2.75
2023-10-28T07:30:06.668Z,1.50
2023-10-28T07:32:33.791Z,2.00
2023-10-28T07:35:00.715Z,3.00
2023-10-28T07:37:27.970Z,3.00
2023-10-28T07:39:54.659Z,3.00
2023-10-28T07:42:23.578Z,4.50
2023-10-28T07:44:54.668Z,2.25
2023-10-28T07:47:22.435Z,1.00
2023-10-28T07:49:49.571Z,3.00
2023-10-28T07:52:17.159Z,3.00
2023-10-28T07:54:44.174Z,3.00
2023-10-28T07:57:11.116Z,1.25
2023-10-28T07:59:37.982Z,3.50
2023-10-28T08:02:05.546Z,3.00
2023-10-28T08:04:32.612Z,2.00
2023-10-28T08:06:59.447Z,2.00
2023-10-28T08:09:26.717Z,2.00
2023-10-28T08:11:54.438Z,2.25
2023-10-28T08:14:21.700Z,2.00
2023-10-28T08:16:48.888Z,0.50
2023-10-28T08:19:16.131Z,1.00
2023-10-28T08:21:43.769Z,0.25
2023-10-28T08:24:13.630Z,1.00
2023-10-28T08:26:41.391Z,1.00
2023-10-28T08:29:08.387Z,2.00
2023-10-28T08:31:37.120Z,0.50
2023-10-28T08:34:06.167Z,1.00
2023-10-28T08:36:35.773Z,0.50
2023-10-28T08:39:02.877Z,0.00
2023-10-28T08:41:30.968Z,1.00
2023-10-28T08:43:58.446Z,0.50
2023-10-28T08:46:25.889Z,1.25
2023-10-28T08:48:57.639Z,2.00
2023-10-28T08:51:24.676Z,1.00
2023-10-28T08:53:56.071Z,0.00
2023-10-28T08:56:26.378Z,2.00
2023-10-28T08:58:54.224Z,1.00
2023-10-28T09:01:24.557Z,1.50
2023-10-28T09:04:05.989Z,1.00
2023-10-28T09:06:36.551Z,1.00
2023-10-28T09:09:11.025Z,0.75
2023-10-28T09:11:37.971Z,1.25
2023-10-28T09:14:09.742Z,1.00
2023-10-28T09:16:37.130Z,1.00
2023-10-28T09:19:05.246Z,2.00
2023-10-28T09:21:32.617Z,1.00
2023-10-28T09:24:04.488Z,1.75
2023-10-28T09:26:31.786Z,1.00
2023-10-28T09:29:00.183Z,2.50
2023-10-28T09:31:27.761Z,2.00
2023-10-28T09:33:54.725Z,2.00
2023-10-28T09:36:22.446Z,1.00
2023-10-28T09:38:51.314Z,1.00
2023-10-28T09:41:20.868Z,1.00
2023-10-28T09:43:50.893Z,0.00
2023-10-28T09:46:22.246Z,3.00
2023-10-28T09:48:54.620Z,0.00
2023-10-28T09:51:25.397Z,0.00
2023-10-28T09:54:03.940Z,1.00
2023-10-28T09:56:37.813Z,1.00
2023-10-28T09:59:36.027Z,0.00
2023-10-28T10:02:39.549Z,1.00
2023-10-28T10:05:18.868Z,1.75
2023-10-28T10:07:47.080Z,1.00
2023-10-28T10:10:15.158Z,0.00
2023-10-28T10:12:43.287Z,0.00
2023-10-28T10:15:16.418Z,1.00
2023-10-28T10:18:22.728Z,1.00
2023-10-28T10:20:49.911Z,0.75
2023-10-28T10:23:16.994Z,1.00
2023-10-28T10:25:47.212Z,1.00
2023-10-28T10:28:24.818Z,1.00
2023-10-28T10:30:52.599Z,1.00
2023-10-28T10:33:26.927Z,0.00
2023-10-28T10:35:54.262Z,0.00
2023-10-28T10:38:32.726Z,1.00
2023-10-28T10:41:01.005Z,0.25
2023-10-28T10:43:33.113Z,1.00
2023-10-28T10:46:01.757Z,0.50
2023-10-28T10:48:29.271Z,0.50
2023-10-28T10:50:58.321Z,1.00
2023-10-28T10:53:25.532Z,2.00
2023-10-28T10:55:52.669Z,1.25
2023-10-28T10:58:20.384Z,1.00
2023-10-28T11:00:54.021Z,0.50
2023-10-28T11:03:23.123Z,0.25
2023-10-28T11:05:52.683Z,1.00
2023-10-28T11:08:19.804Z,1.00
2023-10-28T11:10:48.015Z,1.25
2023-10-28T11:13:15.167Z,0.00
2023-10-28T11:15:42.197Z,1.25
2023-10-28T11:18:10.085Z,1.00
2023-10-28T11:20:37.148Z,1.00
2023-10-28T11:23:04.370Z,0.50
2023-10-28T11:25:35.511Z,1.25
2023-10-28T11:28:10.782Z,1.00
2023-10-28T11:30:39.348Z,1.50
2023-10-28T11:33:12.168Z,1.00
2023-10-28T11:35:38.928Z,1.00
2023-10-28T11:38:06.090Z,1.00
2023-10-28T11:40:34.630Z,1.00
2023-10-28T11:43:06.492Z,0.25
2023-10-28T11:45:33.367Z,1.00
2023-10-28T11:48:00.413Z,1.50
2023-10-28T11:50:27.777Z,1.25
2023-10-28T11:52:55.063Z,1.00
2023-10-28T11:55:21.941Z,0.00
2023-10-28T11:57:49.197Z,1.00
2023-10-28T12:00:16.844Z,1.00
2023-10-28T12:02:43.694Z,1.00
2023-10-28T12:05:11.218Z,0.25
2023-10-28T12:07:38.137Z,0.75
2023-10-28T12:10:08.034Z,0.75
2023-10-28T12:12:35.215Z,0.25
2023-10-28T12:15:02.172Z,0.25
2023-10-28T12:17:29.284Z,0.00
2023-10-28T12:19:56.199Z,0.00
2023-10-28T12:22:23.067Z,1.00
2023-10-28T12:24:50.051Z,0.00
2023-10-28T12:27:17.229Z,1.00
2023-10-28T12:29:47.185Z,0.00
2023-10-28T12:32:14.683Z,1.00
2023-10-28T12:34:41.710Z,0.00
2023-10-28T12:37:08.660Z,0.00
2023-10-28T12:39:35.776Z,2.00
2023-10-28T12:42:04.744Z,0.00
2023-10-28T12:44:32.305Z,0.00
2023-10-28T12:46:59.629Z,4.75
2023-10-28T12:49:26.652Z,1.00
2023-10-28T12:51:57.655Z,0.00
2023-10-28T12:54:25.318Z,0.75
2023-10-28T12:56:53.037Z,0.00
2023-10-28T12:59:20.908Z,0.50
2023-10-28T13:01:48.196Z,0.00
2023-10-28T13:04:15.151Z,0.25
2023-10-28T13:06:42.968Z,2.00
2023-10-28T13:09:12.994Z,1.50
2023-10-28T13:11:43.294Z,1.25
2023-10-28T13:14:10.547Z,2.00
2023-10-28T13:16:38.934Z,1.50
2023-10-28T13:19:06.401Z,1.25
2023-10-28T13:21:33.220Z,0.75
2023-10-28T13:24:00.886Z,1.50
2023-10-28T13:26:29.272Z,1.25
2023-10-28T13:28:56.342Z,2.75
2023-10-28T13:31:24.725Z,1.25
2023-10-28T13:33:51.717Z,2.00
2023-10-28T13:36:19.010Z,2.00
2023-10-28T13:38:46.818Z,0.75
2023-10-28T13:41:18.278Z,1.00
2023-10-28T13:43:46.827Z,2.25
2023-10-28T13:46:14.636Z,3.67
2023-10-28T13:48:41.650Z,2.75
2023-10-28T13:51:08.721Z,1.50
2023-10-28T13:53:36.086Z,2.00
2023-10-28T13:56:03.451Z,2.00
2023-10-28T13:58:30.815Z,1.33
2023-10-28T14:01:08.772Z,2.00
2023-10-28T14:03:36.636Z,1.00
2023-10-28T14:06:12.733Z,2.00
2023-10-28T14:08:40.621Z,3.00
2023-10-28T14:11:09.199Z,2.00
2023-10-28T14:13:42.442Z,1.75
2023-10-28T14:16:20.121Z,2.25
2023-10-28T14:18:50.738Z,2.00
2023-10-28T14:21:22.790Z,3.00
2023-10-28T14:23:50.619Z,4.00
2023-10-28T14:26:20.686Z,1.75
2023-10-28T14:28:48.072Z,2.75
2023-10-28T14:31:17.219Z,4.75
2023-10-28T14:33:45.082Z,4.00
2023-10-28T14:36:12.909Z,4.25
2023-10-28T14:38:43.041Z,5.00
2023-10-28T14:41:10.740Z,7.00
2023-10-28T14:43:37.963Z,6.75
2023-10-28T14:46:07.178Z,5.00
2023-10-28T14:48:34.494Z,4.00
2023-10-28T14:51:01.758Z,4.00
2023-10-28T14:53:28.750Z,3.50
2023-10-28T14:55:57.301Z,4.00
2023-10-28T14:58:32.556Z,3.50
2023-10-28T15:01:07.981Z,4.50
2023-10-28T15:03:34.879Z,6.00
2023-10-28T15:06:01.879Z,5.00
2023-10-28T15:08:29.043Z,3.00
2023-10-28T15:10:55.997Z,3.25
2023-10-28T15:13:22.872Z,3.25
2023-10-28T15:15:49.815Z,2.00
2023-10-28T15:18:16.724Z,2.00
2023-10-28T15:20:46.060Z,2.00
2023-10-28T15:23:13.196Z,2.00
2023-10-28T15:25:41.719Z,2.25
2023-10-28T15:28:08.762Z,2.25
2023-10-28T15:30:35.966Z,3.00
2023-10-28T15:33:02.996Z,2.00
2023-10-28T15:35:30.114Z,1.75
2023-10-28T15:37:57.083Z,3.00
2023-10-28T15:40:24.460Z,3.00
2023-10-28T15:42:53.622Z,3.25
2023-10-28T15:45:21.155Z,2.75
2023-10-28T15:47:48.063Z,4.00
2023-10-28T15:50:18.354Z,5.50
2023-10-28T15:52:45.158Z,7.25
2023-10-28T15:55:12.216Z,5.00
2023-10-28T15:57:39.220Z,5.00
2023-10-28T16:00:09.440Z,5.75
2023-10-28T16:02:36.613Z,2.25
2023-10-28T16:05:03.891Z,4.00
2023-10-28T16:07:30.921Z,4.25
2023-10-28T16:09:59.207Z,4.25
2023-10-28T16:12:26.640Z,4.00
2023-10-28T16:14:54.351Z,6.00
2023-10-28T16:17:24.053Z,4.25
2023-10-28T16:19:51.328Z,5.25
2023-10-28T16:22:18.982Z,20.25
2023-10-28T16:24:46.393Z,12.00
2023-10-28T16:27:13.557Z,10.00
2023-10-28T16:29:42.116Z,9.25
2023-10-28T16:32:10.747Z,10.25
2023-10-28T16:34:37.646Z,19.00
2023-10-28T16:37:04.619Z,18.50
2023-10-28T16:39:31.519Z,19.25
2023-10-28T16:41:58.419Z,15.00
2023-10-28T16:44:25.258Z,24.00
2023-10-28T16:46:52.172Z,22.00
2023-10-28T16:49:19.218Z,20.25
2023-10-28T16:51:49.136Z,21.50
2023-10-28T16:54:17.973Z,21.50
2023-10-28T16:56:45.000Z,20.75
2023-10-28T16:59:12.226Z,22.00
2023-10-28T17:01:43.702Z,20.25
2023-10-28T17:04:10.662Z,25.00
2023-10-28T17:06:37.672Z,26.00
2023-10-28T17:09:04.829Z,25.00
2023-10-28T17:11:34.171Z,26.00
2023-10-28T17:14:01.725Z,24.00
2023-10-28T17:16:32.033Z,25.00
2023-10-28T17:19:03.720Z,29.75
2023-10-28T17:21:31.709Z,22.00
2023-10-28T17:23:59.090Z,17.50
2023-10-28T17:26:26.529Z,26.00
2023-10-28T17:28:53.464Z,25.00
2023-10-28T17:31:20.426Z,26.00
2023-10-28T17:33:47.668Z,28.25
2023-10-28T17:36:17.016Z,25.50
2023-10-28T17:38:45.238Z,27.25
2023-10-28T17:41:14.225Z,25.50
2023-10-28T17:43:41.978Z,28.00
2023-10-28T17:46:11.334Z,38.00
2023-10-28T17:48:38.499Z,32.00
2023-10-28T17:51:08.331Z,33.00
2023-10-28T17:53:35.481Z,32.50
2023-10-28T17:56:03.468Z,35.75
2023-10-28T17:58:31.090Z,36.00
2023-10-28T18:01:01.862Z,35.75
2023-10-28T18:03:31.695Z,35.75
2023-10-28T18:05:59.634Z,32.75
2023-10-28T18:08:27.091Z,33.25
2023-10-28T18:10:55.342Z,29.50
2023-10-28T18:13:22.217Z,28.25
2023-10-28T18:15:49.405Z,31.00
2023-10-28T18:18:17.251Z,32.50
2023-10-28T18:20:44.516Z,32.00
2023-10-28T18:23:12.932Z,30.00
2023-10-28T18:25:40.122Z,33.25
2023-10-28T18:28:07.495Z,33.75
2023-10-28T18:30:35.789Z,32.50
2023-10-28T18:33:03.584Z,33.50
2023-10-28T18:35:30.672Z,34.25
2023-10-28T18:37:58.333Z,34.25
2023-10-28T18:40:25.331Z,34.25
2023-10-28T18:42:54.827Z,38.33
2023-10-28T18:45:21.808Z,37.33
2023-10-28T18:47:49.171Z,38.00
2023-10-28T18:50:18.337Z,36.33
2023-10-28T18:52:45.337Z,37.00
2023-10-28T18:55:12.273Z,39.33
2023-10-28T18:57:39.745Z,40.00
2023-10-28T19:00:09.820Z,39.33
2023-10-28T19:02:37.825Z,35.33
2023-10-28T19:05:05.376Z,39.33
2023-10-28T19:07:32.457Z,40.00
2023-10-28T19:10:02.153Z,45.00
2023-10-28T19:12:29.303Z,50.00
2023-10-28T19:14:56.169Z,51.33
2023-10-28T19:17:23.136Z,59.00
2023-10-28T19:19:51.299Z,59.00
2023-10-28T19:22:19.066Z,67.00
2023-10-28T19:24:46.136Z,65.50
2023-10-28T19:27:13.364Z,49.67
2023-10-28T19:29:40.674Z,56.67
2023-10-28T19:32:07.621Z,49.33
2023-10-28T19:34:34.676Z,52.00
2023-10-28T19:37:01.597Z,49.00
2023-10-28T19:39:28.422Z,45.33
2023-10-28T19:41:55.438Z,45.00
2023-10-28T19:44:22.656Z,50.00
2023-10-28T19:46:50.838Z,45.00
2023-10-28T19:49:18.817Z,44.67
2023-10-28T19:51:45.766Z,40.33
2023-10-28T19:54:13.449Z,41.00
2023-10-28T19:56:40.304Z,41.67
2023-10-28T19:59:08.809Z,41.00
2023-10-28T20:01:36.005Z,39.00
2023-10-28T20:04:02.981Z,39.67
2023-10-28T20:06:31.594Z,39.00
2023-10-28T20:08:58.798Z,38.33
2023-10-28T20:11:27.163Z,39.00
2023-10-28T20:13:54.180Z,39.00
2023-10-28T20:16:21.072Z,40.00
2023-10-28T20:18:48.111Z,38.00
2023-10-28T20:21:18.778Z,39.33
2023-10-28T20:23:45.835Z,40.67
2023-10-28T20:26:12.978Z,38.00
2023-10-28T20:28:40.121Z,40.33
2023-10-28T20:31:07.087Z,37.33
2023-10-28T20:33:34.406Z,39.67
2023-10-28T20:36:01.306Z,39.33
2023-10-28T20:38:28.385Z,46.67
2023-10-28T20:40:55.374Z,42.00
2023-10-28T20:43:23.678Z,41.67
2023-10-28T20:45:53.601Z,44.00
2023-10-28T20:48:21.385Z,47.00
2023-10-28T20:50:51.195Z,36.00
2023-10-28T20:53:18.294Z,42.00
2023-10-28T20:55:45.667Z,42.00
2023-10-28T20:58:12.805Z,42.00
2023-10-28T21:00:41.382Z,43.00
2023-10-28T21:03:09.874Z,45.33
2023-10-28T21:05:37.272Z,42.00
2023-10-28T21:08:05.587Z,43.67
2023-10-28T21:10:32.640Z,42.67
2023-10-28T21:12:59.412Z,47.33
2023-10-28T21:15:26.211Z,43.33
2023-10-28T21:17:53.464Z,44.00
2023-10-28T21:20:20.878Z,46.67
2023-10-28T21:22:49.976Z,42.33
2023-10-28T21:25:17.829Z,43.00
2023-10-28T21:27:45.768Z,40.67
2023-10-28T21:30:12.852Z,41.00
2023-10-28T21:32:39.692Z,41.00
2023-10-28T21:35:07.424Z,42.33
2023-10-28T21:37:34.361Z,38.67
2023-10-28T21:40:01.308Z,42.33
2023-10-28T21:42:28.226Z,41.67
2023-10-28T21:44:55.458Z,43.33
2023-10-28T21:47:22.525Z,40.33
2023-10-28T21:49:49.465Z,54.00
2023-10-28T21:52:16.930Z,35.00
2023-10-28T21:54:44.392Z,35.00
2023-10-28T21:57:13.301Z,28.67
2023-10-28T21:59:40.060Z,27.33
2023-10-28T22:02:11.744Z,30.00
2023-10-28T22:04:42.723Z,28.33
2023-10-28T22:07:12.673Z,28.33
2023-10-28T22:09:39.562Z,27.00
2023-10-28T22:12:06.595Z,25.00
2023-10-28T22:14:33.602Z,25.75
2023-10-28T22:17:00.638Z,28.33
2023-10-28T22:19:28.777Z,25.00
2023-10-28T22:21:57.103Z,25.00
2023-10-28T22:24:24.068Z,28.00
2023-10-28T22:26:51.146Z,24.50
2023-10-28T22:29:18.072Z,31.33
2023-10-28T22:31:44.935Z,30.67
2023-10-28T22:34:11.974Z,29.67
2023-10-28T22:36:38.668Z,27.33
2023-10-28T22:39:05.763Z,30.00
2023-10-28T22:41:34.171Z,28.67
2023-10-28T22:44:01.265Z,20.67
2023-10-28T22:46:30.777Z,29.00
2023-10-28T22:48:57.972Z,24.33
2023-10-28T22:51:25.583Z,28.67
2023-10-28T22:53:52.721Z,29.67
2023-10-28T22:56:23.959Z,29.00
2023-10-28T22:58:53.541Z,28.33
2023-10-28T23:01:20.917Z,28.00
2023-10-28T23:03:48.324Z,28.00
2023-10-28T23:06:21.969Z,25.00
2023-10-28T23:08:50.265Z,28.00
2023-10-28T23:11:17.291Z,25.00
2023-10-28T23:13:44.082Z,28.33
2023-10-28T23:16:10.918Z,25.33
2023-10-28T23:18:37.889Z,25.33
2023-10-28T23:21:05.861Z,26.25
2023-10-28T23:23:32.738Z,28.00
2023-10-28T23:25:59.577Z,28.00
2023-10-28T23:28:26.999Z,25.00
2023-10-28T23:30:53.931Z,25.00
2023-10-28T23:33:21.211Z,25.00
2023-10-28T23:35:48.124Z,22.25
2023-10-28T23:38:15.353Z,23.50
2023-10-28T23:40:42.206Z,25.00
2023-10-28T23:43:09.299Z,24.00
2023-10-28T23:45:36.516Z,20.00
2023-10-28T23:48:04.822Z,22.50
2023-10-28T23:50:31.953Z,19.00
2023-10-28T23:52:59.406Z,18.75
2023-10-28T23:55:26.339Z,23.50
2023-10-28T23:57:53.484Z,19.50
